createdAt,value
2023-03-11T00:00:14.475Z,9.87
2023-03-11T00:02:41.742Z,6.38
2023-03-11T00:05:09.766Z,10.98
2023-03-11T00:07:37.775Z,6.22
2023-03-11T00:10:05.222Z,8.18
2023-03-11T00:12:32.380Z,7.73
2023-03-11T00:14:59.344Z,7.47
2023-03-11T00:17:26.605Z,6.05
2023-03-11T00:19:53.899Z,4.25
2023-03-11T00:22:21.116Z,6.60
2023-03-11T00:24:48.360Z,6.33
2023-03-11T00:27:15.629Z,8.85
2023-03-11T00:29:42.940Z,12.35
2023-03-11T00:32:10.302Z,5.00
2023-03-11T00:34:37.594Z,3.38
2023-03-11T00:37:04.929Z,6.97
2023-03-11T00:39:32.153Z,4.65
2023-03-11T00:41:59.021Z,4.88
2023-03-11T00:44:26.607Z,9.10
2023-03-11T00:46:53.392Z,8.43
2023-03-11T00:49:20.290Z,9.60
2023-03-11T00:51:47.507Z,6.55
2023-03-11T00:54:15.459Z,4.47
2023-03-11T00:56:43.023Z,4.35
2023-03-11T00:59:11.433Z,5.68
2023-03-11T01:01:38.847Z,6.70
2023-03-11T01:04:06.328Z,5.32
2023-03-11T01:06:44.821Z,5.10
2023-03-11T01:09:12.995Z,6.55
2023-03-11T01:11:40.352Z,8.32
2023-03-11T01:14:08.967Z,3.23
2023-03-11T01:16:35.781Z,9.73
2023-03-11T01:19:03.542Z,6.00
2023-03-11T01:21:30.912Z,4.85
2023-03-11T01:23:58.150Z,8.35
2023-03-11T01:26:25.361Z,5.80
2023-03-11T01:28:56.301Z,5.47
2023-03-11T01:31:23.799Z,8.65
2023-03-11T01:33:51.387Z,6.57
2023-03-11T01:36:18.598Z,6.80
2023-03-11T01:38:45.775Z,6.17
2023-03-11T01:41:13.328Z,6.82
2023-03-11T01:43:44.416Z,5.15
2023-03-11T01:47:00.128Z,11.60
2023-03-11T01:49:33.549Z,10.98
2023-03-11T01:52:03.945Z,5.57
2023-03-11T01:54:33.568Z,2.90
2023-03-11T01:57:05.318Z,7.55
2023-03-11T01:59:47.550Z,4.88
2023-03-11T02:02:28.592Z,12.68
2023-03-11T02:04:56.070Z,5.77
2023-03-11T02:07:24.906Z,5.38
2023-03-11T02:09:52.497Z,9.27
2023-03-11T02:12:19.981Z,10.68
2023-03-11T02:14:53.490Z,6.43
2023-03-11T02:17:21.392Z,4.60
2023-03-11T02:19:54.419Z,4.72
2023-03-11T02:22:21.795Z,6.22
2023-03-11T02:25:21.160Z,5.28
2023-03-11T02:27:52.017Z,5.03
2023-03-11T02:30:22.666Z,8.00
2023-03-11T02:32:50.315Z,6.35
2023-03-11T02:35:18.469Z,4.18
2023-03-11T02:37:47.840Z,7.38
2023-03-11T02:40:23.892Z,8.15
2023-03-11T02:42:58.286Z,6.73
2023-03-11T02:45:26.856Z,10.50
2023-03-11T02:47:56.564Z,9.48
2023-03-11T02:50:28.322Z,13.35
2023-03-11T02:52:56.290Z,10.88
2023-03-11T02:55:23.591Z,12.83
2023-03-11T02:57:51.108Z,15.05
2023-03-11T03:00:18.660Z,12.10
2023-03-11T03:02:55.623Z,8.23
2023-03-11T03:05:23.568Z,10.85
2023-03-11T03:07:51.994Z,13.27
2023-03-11T03:10:20.770Z,12.40
2023-03-11T03:12:48.208Z,9.80
2023-03-11T03:15:16.063Z,14.85
2023-03-11T03:17:44.869Z,17.92
2023-03-11T03:20:13.906Z,19.43
2023-03-11T03:22:45.344Z,17.35
2023-03-11T03:25:15.550Z,12.88
2023-03-11T03:27:43.019Z,10.93
2023-03-11T03:30:11.130Z,13.65
2023-03-11T03:32:38.991Z,20.70
2023-03-11T03:35:09.705Z,11.70
2023-03-11T03:38:12.584Z,11.30
2023-03-11T03:40:41.077Z,7.05
2023-03-11T03:43:08.711Z,12.55
2023-03-11T03:45:37.505Z,7.83
2023-03-11T03:48:05.643Z,10.18
2023-03-11T03:50:39.918Z,9.70
2023-03-11T03:53:08.722Z,5.38
2023-03-11T03:55:36.080Z,7.32
2023-03-11T03:58:03.446Z,5.23
2023-03-11T04:00:34.409Z,8.05
2023-03-11T04:03:03.203Z,7.15
2023-03-11T04:06:28.804Z,5.55
2023-03-11T04:09:01.066Z,7.32
2023-03-11T04:11:32.913Z,9.00
2023-03-11T04:14:02.563Z,6.28
2023-03-11T04:16:31.323Z,7.15
2023-03-11T04:19:05.636Z,6.00
2023-03-11T04:21:33.214Z,8.13
2023-03-11T04:24:00.833Z,5.38
2023-03-11T04:26:32.892Z,5.28
2023-03-11T04:29:00.520Z,5.85
2023-03-11T04:31:30.973Z,4.20
2023-03-11T04:34:00.653Z,6.37
2023-03-11T04:36:28.190Z,5.10
2023-03-11T04:38:57.842Z,4.85
2023-03-11T04:41:26.614Z,5.05
2023-03-11T04:43:54.754Z,5.60
2023-03-11T04:46:22.611Z,8.83
2023-03-11T04:48:50.172Z,3.85
2023-03-11T04:51:17.982Z,4.25
2023-03-11T04:53:45.837Z,4.35
2023-03-11T04:56:13.230Z,3.40
2023-03-11T04:58:41.090Z,3.78
2023-03-11T05:01:08.730Z,7.80
2023-03-11T05:03:35.641Z,5.47
2023-03-11T05:06:03.091Z,7.75
2023-03-11T05:08:30.993Z,6.63
2023-03-11T05:10:58.441Z,7.25
2023-03-11T05:13:26.110Z,5.35
2023-03-11T05:15:53.916Z,5.75
2023-03-11T05:18:21.583Z,5.25
2023-03-11T05:20:50.023Z,11.40
2023-03-11T05:23:19.045Z,8.38
2023-03-11T05:25:46.396Z,7.53
2023-03-11T05:28:13.630Z,4.45
2023-03-11T05:30:46.901Z,4.77
2023-03-11T05:33:14.340Z,5.05
2023-03-11T05:35:42.803Z,7.50
2023-03-11T05:38:10.496Z,6.07
2023-03-11T05:40:38.119Z,6.18
2023-03-11T05:43:05.465Z,4.53
2023-03-11T05:45:36.519Z,6.05
2023-03-11T05:48:03.758Z,3.85
2023-03-11T05:50:31.540Z,5.75
2023-03-11T05:52:58.813Z,4.97
2023-03-11T05:55:27.031Z,6.43
2023-03-11T05:57:54.875Z,4.63
2023-03-11T06:00:23.525Z,20.52
2023-03-11T06:02:53.425Z,15.15
2023-03-11T06:05:20.507Z,4.63
2023-03-11T06:07:49.537Z,6.30
2023-03-11T06:10:17.290Z,8.70
2023-03-11T06:12:44.215Z,9.50
2023-03-11T06:15:17.138Z,7.30
2023-03-11T06:17:45.061Z,7.17
2023-03-11T06:20:13.032Z,9.35
2023-03-11T06:22:41.035Z,6.15
2023-03-11T06:25:09.546Z,10.45
2023-03-11T06:27:38.250Z,20.13
2023-03-11T06:30:07.050Z,10.57
2023-03-11T06:32:40.622Z,9.48
2023-03-11T06:35:08.570Z,7.05
2023-03-11T06:37:38.974Z,6.88
2023-03-11T06:40:07.973Z,8.43
2023-03-11T06:42:35.593Z,6.30
2023-03-11T06:45:04.012Z,5.65
2023-03-11T06:47:31.477Z,8.18
2023-03-11T06:49:59.839Z,9.25
2023-03-11T06:52:27.588Z,7.00
2023-03-11T06:54:56.379Z,9.38
2023-03-11T06:57:23.793Z,8.65
2023-03-11T06:59:54.317Z,67.55
2023-03-11T07:02:22.215Z,11.23
2023-03-11T07:04:49.825Z,10.43
2023-03-11T07:07:18.640Z,10.40
2023-03-11T07:09:45.594Z,6.82
2023-03-11T07:12:14.892Z,8.05
2023-03-11T07:14:41.935Z,19.17
2023-03-11T07:17:08.769Z,39.73
2023-03-11T07:19:45.576Z,26.10
2023-03-11T07:22:13.061Z,18.85
2023-03-11T07:24:40.334Z,22.10
2023-03-11T07:27:07.560Z,21.02
2023-03-11T07:29:34.392Z,15.03
2023-03-11T07:32:01.703Z,14.13
2023-03-11T07:34:28.988Z,12.20
2023-03-11T07:36:56.245Z,13.77
2023-03-11T07:39:23.406Z,12.30
2023-03-11T07:41:50.645Z,13.30
2023-03-11T07:44:18.335Z,9.13
2023-03-11T07:46:46.098Z,12.23
2023-03-11T07:49:13.975Z,18.92
2023-03-11T07:51:42.454Z,37.45
2023-03-11T07:54:11.671Z,16.30
2023-03-11T07:56:38.951Z,10.93
2023-03-11T07:59:06.329Z,11.60
2023-03-11T08:01:36.826Z,11.25
2023-03-11T08:04:06.339Z,9.45
2023-03-11T08:06:34.368Z,11.47
2023-03-11T08:09:03.365Z,8.13
2023-03-11T08:11:31.372Z,7.38
2023-03-11T08:13:58.544Z,9.38
2023-03-11T08:16:26.676Z,13.55
2023-03-11T08:18:53.656Z,9.17
2023-03-11T08:21:23.842Z,10.30
2023-03-11T08:23:51.657Z,11.70
2023-03-11T08:26:21.970Z,7.75
2023-03-11T08:28:49.983Z,9.45
2023-03-11T08:31:19.884Z,8.47
2023-03-11T08:33:49.933Z,7.20
2023-03-11T08:36:17.662Z,8.32
2023-03-11T08:38:44.786Z,6.35
2023-03-11T08:41:11.915Z,8.23
2023-03-11T08:43:39.288Z,10.93
2023-03-11T08:46:07.172Z,10.35
2023-03-11T08:48:36.540Z,11.00
2023-03-11T08:51:12.806Z,6.45
2023-03-11T08:53:40.411Z,8.60
2023-03-11T08:56:08.026Z,11.40
2023-03-11T08:58:35.518Z,7.07
2023-03-11T09:01:03.066Z,11.05
2023-03-11T09:03:35.290Z,5.70
2023-03-11T09:06:04.510Z,6.50
2023-03-11T09:08:31.363Z,7.60
2023-03-11T09:10:58.554Z,10.13
2023-03-11T09:13:26.012Z,5.60
2023-03-11T09:15:53.762Z,5.57
2023-03-11T09:18:20.995Z,7.70
2023-03-11T09:20:48.025Z,5.87
2023-03-11T09:23:17.380Z,9.85
2023-03-11T09:25:44.642Z,10.70
2023-03-11T09:28:12.026Z,8.15
2023-03-11T09:30:39.597Z,5.30
2023-03-11T09:33:06.841Z,3.83
2023-03-11T09:35:34.112Z,5.55
2023-03-11T09:38:01.851Z,6.70
2023-03-11T09:40:42.933Z,5.00
2023-03-11T09:43:48.650Z,9.90
2023-03-11T09:46:46.508Z,7.83
2023-03-11T09:49:33.680Z,6.68
2023-03-11T09:52:21.549Z,6.75
2023-03-11T09:54:55.100Z,6.45
2023-03-11T09:57:34.701Z,5.88
2023-03-11T10:00:05.542Z,6.20
2023-03-11T10:02:40.655Z,4.68
2023-03-11T10:05:20.296Z,8.45
2023-03-11T10:07:57.342Z,5.88
2023-03-11T10:10:26.187Z,9.63
2023-03-11T10:13:13.364Z,10.33
2023-03-11T10:15:59.632Z,7.45
2023-03-11T10:18:26.908Z,4.05
2023-03-11T10:21:44.718Z,6.95
2023-03-11T10:24:21.717Z,4.63
2023-03-11T10:26:52.903Z,5.27
2023-03-11T10:29:47.932Z,6.57
2023-03-11T10:32:28.916Z,8.05
2023-03-11T10:35:11.155Z,5.63
2023-03-11T10:37:49.691Z,4.38
2023-03-11T10:40:39.482Z,5.67
2023-03-11T10:43:13.118Z,4.28
2023-03-11T10:45:44.734Z,4.22
2023-03-11T10:48:16.975Z,7.82
2023-03-11T10:50:52.654Z,4.75
2023-03-11T10:53:21.061Z,5.80
2023-03-11T10:55:53.974Z,5.15
2023-03-11T10:58:24.214Z,7.35
2023-03-11T11:01:02.181Z,5.45
2023-03-11T11:03:29.649Z,6.45
2023-03-11T11:06:10.559Z,8.97
2023-03-11T11:08:37.872Z,5.25
2023-03-11T11:11:05.583Z,5.97
2023-03-11T11:13:34.835Z,5.25
2023-03-11T11:16:02.159Z,5.97
2023-03-11T11:18:43.721Z,7.50
2023-03-11T11:21:28.433Z,6.28
2023-03-11T11:24:16.641Z,7.85
2023-03-11T11:26:44.172Z,5.70
2023-03-11T11:29:11.051Z,10.07
2023-03-11T11:31:40.130Z,5.03
2023-03-11T11:34:34.702Z,5.47
2023-03-11T11:37:04.325Z,7.30
2023-03-11T11:39:40.271Z,9.15
2023-03-11T11:42:11.660Z,9.13
2023-03-11T11:44:38.679Z,3.33
2023-03-11T11:47:21.593Z,4.82
2023-03-11T11:50:14.427Z,4.78
2023-03-11T11:52:47.355Z,6.07
2023-03-11T11:55:24.882Z,6.30
2023-03-11T11:57:53.510Z,5.77
2023-03-11T12:00:31.022Z,7.28
2023-03-11T12:03:36.683Z,5.78
2023-03-11T12:06:28.123Z,4.57
2023-03-11T12:09:10.177Z,6.55
2023-03-11T12:11:49.753Z,5.63
2023-03-11T12:14:34.010Z,5.15
2023-03-11T12:17:04.242Z,6.28
2023-03-11T12:19:41.702Z,8.82
2023-03-11T12:22:47.026Z,5.85
2023-03-11T12:25:14.437Z,8.33
2023-03-11T12:27:46.959Z,4.82
2023-03-11T12:30:18.395Z,6.22
2023-03-11T12:33:01.756Z,6.18
2023-03-11T12:35:34.611Z,6.50
2023-03-11T12:38:32.972Z,7.27
2023-03-11T12:41:28.931Z,7.22
2023-03-11T12:44:01.143Z,8.80
2023-03-11T12:46:59.222Z,9.27
2023-03-11T12:49:30.542Z,4.80
2023-03-11T12:52:09.307Z,5.73
2023-03-11T12:54:39.539Z,5.80
2023-03-11T12:57:18.809Z,8.38
2023-03-11T12:59:46.031Z,6.05
2023-03-11T13:02:40.316Z,7.85
2023-03-11T13:05:37.726Z,5.97
2023-03-11T13:08:13.716Z,5.85
2023-03-11T13:10:43.492Z,6.13
2023-03-11T13:13:25.375Z,8.13
2023-03-11T13:15:53.181Z,7.30
2023-03-11T13:18:32.882Z,5.03
2023-03-11T13:21:01.737Z,8.23
2023-03-11T13:23:37.983Z,5.63
2023-03-11T13:26:13.366Z,5.15
2023-03-11T13:29:07.547Z,7.13
2023-03-11T13:32:12.544Z,5.10
2023-03-11T13:35:04.762Z,4.18
2023-03-11T13:37:53.374Z,4.72
2023-03-11T13:40:52.782Z,7.82
2023-03-11T13:43:25.360Z,5.78
2023-03-11T13:46:00.318Z,7.70
2023-03-11T13:48:28.181Z,5.30
2023-03-11T13:51:06.695Z,4.82
2023-03-11T13:53:50.089Z,3.95
2023-03-11T13:56:49.212Z,10.15
2023-03-11T13:59:30.037Z,7.00
2023-03-11T14:02:00.520Z,5.30
2023-03-11T14:04:33.268Z,6.95
2023-03-11T14:07:00.794Z,9.40
2023-03-11T14:09:28.793Z,7.40
2023-03-11T14:12:04.704Z,6.47
2023-03-11T14:14:43.543Z,5.35
2023-03-11T14:17:18.564Z,7.80
2023-03-11T14:20:10.542Z,6.50
2023-03-11T14:22:39.033Z,7.63
2023-03-11T14:25:09.813Z,8.47
2023-03-11T14:27:39.909Z,8.15
2023-03-11T14:30:07.413Z,4.88
2023-03-11T14:32:35.207Z,10.27
2023-03-11T14:35:02.799Z,8.02
2023-03-11T14:37:36.593Z,3.80
2023-03-11T14:40:05.079Z,5.07
2023-03-11T14:42:32.233Z,5.13
2023-03-11T14:45:02.871Z,3.40
2023-03-11T14:47:35.352Z,6.03
2023-03-11T14:50:05.606Z,5.60
2023-03-11T14:52:42.027Z,4.13
2023-03-11T14:55:21.108Z,7.38
2023-03-11T14:57:59.470Z,5.13
2023-03-11T15:00:30.154Z,4.20
2023-03-11T15:03:29.032Z,4.23
2023-03-11T15:06:03.391Z,5.32
2023-03-11T15:08:44.340Z,6.60
2023-03-11T15:11:11.155Z,5.30
2023-03-11T15:13:40.567Z,8.80
2023-03-11T15:16:21.792Z,3.63
2023-03-11T15:18:48.792Z,5.60
2023-03-11T15:21:18.794Z,8.18
2023-03-11T15:23:52.549Z,7.78
2023-03-11T15:26:23.432Z,9.73
2023-03-11T15:28:56.717Z,6.77
2023-03-11T15:31:23.969Z,7.65
2023-03-11T15:33:54.433Z,4.90
2023-03-11T15:36:47.315Z,5.32
2023-03-11T15:39:16.091Z,6.13
2023-03-11T15:41:47.826Z,5.30
2023-03-11T15:44:25.701Z,8.45
2023-03-11T15:46:53.208Z,6.80
2023-03-11T15:49:20.517Z,6.72
2023-03-11T15:51:47.762Z,5.07
2023-03-11T15:54:14.950Z,6.97
2023-03-11T15:56:42.709Z,6.90
2023-03-11T15:59:18.656Z,10.00
2023-03-11T16:01:47.328Z,7.88
2023-03-11T16:04:16.555Z,4.30
2023-03-11T16:06:44.235Z,4.80
2023-03-11T16:09:11.821Z,7.03
2023-03-11T16:11:39.905Z,5.28
2023-03-11T16:14:13.303Z,7.93
2023-03-11T16:16:40.258Z,11.55
2023-03-11T16:19:07.225Z,6.67
2023-03-11T16:21:38.452Z,5.80
2023-03-11T16:24:06.382Z,5.38
2023-03-11T16:26:35.190Z,6.68
2023-03-11T16:29:16.526Z,5.90
2023-03-11T16:31:45.540Z,7.40
2023-03-11T16:34:12.387Z,6.22
2023-03-11T16:36:39.186Z,6.07
2023-03-11T16:39:06.104Z,6.57
2023-03-11T16:41:44.637Z,7.82
2023-03-11T16:44:11.874Z,5.13
2023-03-11T16:46:39.409Z,7.97
2023-03-11T16:49:06.514Z,9.57
2023-03-11T16:51:33.809Z,6.05
2023-03-11T16:54:01.114Z,6.30
2023-03-11T16:56:28.423Z,44.97
2023-03-11T16:58:55.695Z,10.63
2023-03-11T17:01:22.790Z,12.60
2023-03-11T17:03:50.842Z,13.30
2023-03-11T17:06:18.003Z,13.55
2023-03-11T17:08:49.180Z,10.67
2023-03-11T17:11:24.593Z,9.15
2023-03-11T17:13:51.718Z,8.20
2023-03-11T17:16:19.091Z,9.23
2023-03-11T17:18:46.461Z,8.30
2023-03-11T17:21:15.255Z,9.00
2023-03-11T17:23:42.763Z,9.18
2023-03-11T17:26:17.507Z,9.25
2023-03-11T17:28:44.910Z,10.00
2023-03-11T17:31:14.220Z,12.55
2023-03-11T17:33:41.856Z,20.53
2023-03-11T17:36:12.568Z,17.42
2023-03-11T17:38:39.609Z,17.55
2023-03-11T17:41:11.407Z,15.15
2023-03-11T17:43:38.964Z,9.95
2023-03-11T17:46:14.386Z,12.97
2023-03-11T17:48:46.268Z,11.85
2023-03-11T17:51:21.698Z,16.83
2023-03-11T17:53:49.385Z,17.25
2023-03-11T17:56:18.460Z,19.65
2023-03-11T17:58:45.729Z,18.37
2023-03-11T18:01:15.787Z,20.90
2023-03-11T18:03:42.736Z,25.92
2023-03-11T18:06:10.269Z,23.42
2023-03-11T18:08:37.659Z,23.02
2023-03-11T18:11:07.143Z,25.03
2023-03-11T18:13:34.990Z,22.05
2023-03-11T18:16:16.210Z,23.50
2023-03-11T18:18:44.006Z,20.13
2023-03-11T18:21:23.398Z,26.88
2023-03-11T18:23:53.313Z,36.47
2023-03-11T18:26:20.970Z,42.63
2023-03-11T18:28:48.237Z,40.63
2023-03-11T18:31:21.870Z,39.85
2023-03-11T18:33:51.637Z,85.22
2023-03-11T18:36:24.205Z,87.40
2023-03-11T18:38:53.231Z,32.17
2023-03-11T18:41:20.975Z,23.65
2023-03-11T18:43:51.539Z,21.70
2023-03-11T18:46:18.884Z,22.98
2023-03-11T18:48:46.499Z,15.93
2023-03-11T18:51:14.069Z,16.35
2023-03-11T18:53:42.962Z,14.80
2023-03-11T18:56:13.447Z,12.80
2023-03-11T18:58:40.659Z,13.35
2023-03-11T19:01:14.140Z,13.97
2023-03-11T19:03:42.482Z,17.70
2023-03-11T19:06:11.070Z,24.98
2023-03-11T19:08:38.462Z,27.15
2023-03-11T19:11:09.231Z,31.15
2023-03-11T19:13:46.576Z,36.70
2023-03-11T19:16:16.285Z,25.92
2023-03-11T19:18:43.197Z,24.95
2023-03-11T19:21:12.173Z,34.15
2023-03-11T19:23:39.244Z,38.08
2023-03-11T19:26:06.976Z,34.07
2023-03-11T19:28:34.375Z,28.92
2023-03-11T19:31:01.747Z,26.10
2023-03-11T19:33:29.259Z,28.50
2023-03-11T19:35:58.485Z,24.67
2023-03-11T19:38:27.181Z,26.40
2023-03-11T19:40:59.737Z,29.40
2023-03-11T19:43:27.414Z,31.52
2023-03-11T19:45:54.885Z,29.60
2023-03-11T19:48:22.132Z,32.17
2023-03-11T19:50:53.183Z,62.53
2023-03-11T19:53:21.614Z,51.30
2023-03-11T19:55:52.438Z,48.75
2023-03-11T19:58:20.557Z,36.40
2023-03-11T20:00:48.257Z,26.30
2023-03-11T20:03:15.703Z,25.60
2023-03-11T20:05:44.963Z,24.25
2023-03-11T20:08:14.262Z,38.78
2023-03-11T20:10:43.117Z,39.10
2023-03-11T20:13:10.486Z,34.55
2023-03-11T20:15:38.013Z,35.80
2023-03-11T20:18:06.228Z,42.03
2023-03-11T20:20:33.896Z,31.60
2023-03-11T20:23:01.991Z,29.83
2023-03-11T20:25:32.904Z,31.63
2023-03-11T20:28:00.640Z,29.87
2023-03-11T20:30:28.529Z,30.05
2023-03-11T20:32:56.160Z,28.70
2023-03-11T20:35:24.144Z,29.00
2023-03-11T20:37:51.037Z,28.45
2023-03-11T20:40:18.884Z,24.73
2023-03-11T20:42:47.202Z,28.15
2023-03-11T20:45:16.193Z,24.83
2023-03-11T20:47:44.592Z,33.33
2023-03-11T20:50:12.964Z,20.95
2023-03-11T20:52:40.607Z,22.87
2023-03-11T20:55:10.058Z,21.05
2023-03-11T20:57:38.367Z,22.58
2023-03-11T21:00:11.807Z,23.30
2023-03-11T21:02:40.770Z,21.75
2023-03-11T21:05:09.602Z,21.63
2023-03-11T21:07:37.029Z,17.48
2023-03-11T21:10:06.249Z,17.48
2023-03-11T21:12:33.514Z,17.15
2023-03-11T21:15:00.614Z,18.27
2023-03-11T21:17:27.906Z,17.20
2023-03-11T21:19:55.336Z,21.95
2023-03-11T21:22:22.193Z,18.30
2023-03-11T21:24:53.066Z,17.45
2023-03-11T21:27:25.821Z,17.80
2023-03-11T21:29:53.792Z,19.07
2023-03-11T21:32:21.473Z,22.05
2023-03-11T21:34:48.586Z,24.42
2023-03-11T21:37:15.792Z,25.30
2023-03-11T21:39:42.966Z,24.27
2023-03-11T21:42:10.176Z,21.63
2023-03-11T21:44:37.515Z,20.45
2023-03-11T21:47:05.047Z,21.65
2023-03-11T21:49:32.297Z,15.27
2023-03-11T21:52:02.111Z,17.50
2023-03-11T21:54:29.791Z,19.43
2023-03-11T21:56:57.498Z,19.98
2023-03-11T21:59:25.725Z,18.00
2023-03-11T22:01:53.454Z,23.52
2023-03-11T22:04:20.993Z,15.60
2023-03-11T22:06:48.060Z,20.87
2023-03-11T22:09:15.692Z,18.75
2023-03-11T22:11:43.011Z,22.90
2023-03-11T22:14:09.818Z,22.70
2023-03-11T22:16:37.241Z,25.10
2023-03-11T22:19:06.159Z,22.00
2023-03-11T22:21:33.583Z,26.00
2023-03-11T22:24:00.824Z,20.15
2023-03-11T22:26:28.118Z,26.00
2023-03-11T22:28:54.935Z,18.55
2023-03-11T22:31:22.683Z,21.20
2023-03-11T22:33:50.010Z,16.27
2023-03-11T22:36:17.352Z,16.85
2023-03-11T22:38:44.998Z,19.73
2023-03-11T22:41:13.644Z,18.38
2023-03-11T22:43:41.138Z,19.63
2023-03-11T22:46:08.495Z,14.23
2023-03-11T22:48:36.294Z,17.52
2023-03-11T22:51:03.690Z,15.88
2023-03-11T22:53:30.959Z,16.33
2023-03-11T22:55:58.408Z,18.43
2023-03-11T22:58:25.577Z,20.52
2023-03-11T23:00:52.784Z,16.33
2023-03-11T23:03:20.165Z,18.58
2023-03-11T23:05:47.441Z,21.63
2023-03-11T23:08:16.139Z,16.40
2023-03-11T23:10:47.019Z,17.05
2023-03-11T23:13:14.536Z,14.00
2023-03-11T23:15:43.630Z,17.55
2023-03-11T23:18:11.129Z,15.10
2023-03-11T23:20:40.892Z,19.60
2023-03-11T23:23:08.732Z,17.38
2023-03-11T23:25:36.355Z,14.13
2023-03-11T23:28:04.699Z,13.30
2023-03-11T23:30:32.378Z,15.00
2023-03-11T23:33:02.452Z,13.00
2023-03-11T23:35:29.688Z,16.05
2023-03-11T23:37:57.098Z,13.63
2023-03-11T23:40:24.388Z,12.52
2023-03-11T23:42:51.482Z,12.05
2023-03-11T23:45:18.759Z,15.00
2023-03-11T23:47:45.584Z,14.18
2023-03-11T23:50:13.014Z,11.82
2023-03-11T23:52:40.253Z,13.60
2023-03-11T23:55:07.861Z,17.27
2023-03-11T23:57:38.157Z,10.37
